| time (UTC) | temp F | wind direction | speed MPH | gust MPH | rain 1hr in | rain 24hr in | rain mn in | humidity % | barometer mb |
| 20260905010004 | 60 | 18 | 0.0 | 0.0 | 0.00 | 0.28 | 0.28 | 66 | 1014.3 |
| 20260905004504 | 61 | 21 | 0.0 | 3.0 | 0.00 | 0.28 | 0.28 | 62 | 1014.3 |
| 20260905003002 | 61 | 31 | 0.0 | 3.0 | 0.00 | 0.28 | 0.28 | 62 | 1014.1 |
| 20260905001504 | 61 | 229 | 0.0 | 3.0 | 0.00 | 0.28 | 0.28 | 64 | 1013.9 |
| 20260905000112 | 62 | 228 | 0.0 | 2.0 | 0.00 | 0.28 | 0.28 | 61 | 1013.9 |
| 20260904234601 | 62 | 351 | 0.0 | 5.0 | 0.00 | 0.28 | 0.28 | 60 | 1013.9 |
| 20260904233118 | 62 | 11 | 0.0 | 3.0 | 0.00 | 0.28 | 0.28 | 59 | 1013.6 |
| 20260904231605 | 62 | 296 | 0.0 | 1.0 | 0.00 | 0.28 | 0.28 | 63 | 1013.7 |
| 20260904230058 | 62 | 299 | 0.0 | 2.0 | 0.00 | 0.28 | 0.28 | 62 | 1013.4 |
| 20260904224558 | 62 | 254 | 0.0 | 2.0 | 0.00 | 0.28 | 0.28 | 64 | 1013.3 |
| 20260904223122 | 62 | 136 | 0.0 | 3.0 | 0.00 | 0.28 | 0.28 | 64 | 1013.3 |
| 20260904221558 | 62 | 5 | 0.0 | 0.0 | 0.00 | 0.28 | 0.28 | 62 | 1013.2 |
| 20260904220052 | 62 | 360 | 0.0 | 1.0 | 0.00 | 0.28 | 0.28 | 65 | 1013.3 |
| 20260904214548 | 61 | 355 | 0.0 | 1.0 | 0.00 | 0.28 | 0.28 | 64 | 1013.5 |
| 20260904213047 | 59 | 29 | 0.0 | 0.0 | 0.00 | 0.28 | 0.28 | 72 | 1013.5 |
| 20260904211543 | 59 | 31 | 0.0 | 1.0 | 0.00 | 0.28 | 0.28 | 76 | 1013.4 |
| 20260904210057 | 59 | 11 | 0.0 | 1.0 | 0.00 | 0.28 | 0.28 | 71 | 1013.3 |
| 20260904204540 | 58 | 360 | 0.0 | 1.0 | 0.00 | 0.28 | 0.28 | 82 | 1013.2 |
| 20260904203039 | 58 | 360 | 0.0 | 0.0 | 0.03 | 0.28 | 0.28 | 82 | 1013.1 |
| 20260904201538 | 58 | 331 | 0.0 | 0.0 | 0.03 | 0.28 | 0.28 | 80 | 1012.9 |
| 20260904200039 | 59 | 331 | 0.0 | 0.0 | 0.03 | 0.28 | 0.28 | 79 | 1012.7 |
| 20260904194536 | 59 | 331 | 0.0 | 0.0 | 0.03 | 0.28 | 0.28 | 75 | 1012.6 |
| 20260904193036 | 59 | 329 | 0.0 | 0.0 | 0.00 | 0.26 | 0.25 | 83 | 1012.6 |
| 20260904191540 | 59 | 329 | 0.0 | 0.0 | 0.00 | 0.26 | 0.25 | 82 | 1012.4 |
| 20260904190036 | 59 | 201 | 0.0 | 2.0 | 0.00 | 0.26 | 0.25 | 78 | 1012.3 |
| 20260904184530 | 58 | 152 | 0.0 | 2.0 | 0.00 | 0.26 | 0.25 | 90 | 1012.4 |
| 20260904183027 | 57 | 86 | 0.0 | 0.0 | 0.00 | 0.26 | 0.25 | 91 | 1012.4 |
| 20260904181530 | 55 | 86 | 0.0 | 1.0 | 0.00 | 0.26 | 0.25 | 85 | 1012.5 |
| 20260904180020 | 55 | 88 | 0.0 | 0.0 | 0.00 | 0.26 | 0.25 | 93 | 1012.5 |
| 20260904174517 | 54 | 88 | 0.0 | 0.0 | 0.00 | 0.26 | 0.25 | 96 | 1012.5 |
| 20260904173033 | 53 | 88 | 0.0 | 0.0 | 0.00 | 0.26 | 0.25 | 98 | 1012.6 |
| 20260904171512 | 52 | 88 | 0.0 | 0.0 | 0.00 | 0.26 | 0.25 | 99 | 1012.6 |
| 20260904170009 | 51 | 88 | 0.0 | 0.0 | 0.00 | 0.26 | 0.25 | 99 | 1012.7 |
| 20260904164507 | 50 | 88 | 0.0 | 0.0 | 0.00 | 0.26 | 0.25 | 99 | 1012.7 |
| 20260904163004 | 49 | 88 | 0.0 | 0.0 | 0.00 | 0.26 | 0.25 | 98 | 1012.8 |
| 20260904161610 | 48 | 88 | 0.0 | 0.0 | 0.00 | 0.26 | 0.25 | 98 | 1012.9 |
| 20260904154555 | 45 | 88 | 0.0 | 0.0 | 0.00 | 0.26 | 0.25 | 98 | 1012.8 |
| 20260904153058 | 45 | 88 | 0.0 | 0.0 | 0.00 | 0.26 | 0.25 | 98 | 1012.7 |
| 20260904151557 | 44 | 88 | 0.0 | 0.0 | 0.01 | 0.26 | 0.25 | 98 | 1012.6 |
| 20260904150053 | 44 | 88 | 0.0 | 0.0 | 0.01 | 0.26 | 0.25 | 98 | 1012.5 |
| 20260904144607 | 43 | 88 | 0.0 | 0.0 | 0.01 | 0.26 | 0.25 | 98 | 1012.5 |
| 20260904143058 | 42 | 88 | 0.0 | 0.0 | 0.01 | 0.26 | 0.25 | 97 | 1012.3 |
| 20260904141549 | 42 | 88 | 0.0 | 0.0 | 0.01 | 0.25 | 0.24 | 97 | 1012.1 |
| 20260904140046 | 42 | 88 | 0.0 | 0.0 | 0.01 | 0.25 | 0.24 | 97 | 1011.9 |
| 20260904134544 | 42 | 88 | 0.0 | 0.0 | 0.01 | 0.25 | 0.24 | 97 | 1011.7 |
| 20260904133049 | 42 | 88 | 0.0 | 0.0 | 0.02 | 0.25 | 0.24 | 97 | 1011.4 |
| 20260904131539 | 43 | 88 | 0.0 | 0.0 | 0.01 | 0.24 | 0.23 | 97 | 1011.3 |
| 20260904130038 | 43 | 88 | 0.0 | 0.0 | 0.02 | 0.24 | 0.23 | 97 | 1011.1 |
| 20260904124536 | 44 | 88 | 0.0 | 0.0 | 0.02 | 0.24 | 0.23 | 97 | 1011.0 |
| 20260904123036 | 44 | 88 | 0.0 | 0.0 | 0.02 | 0.23 | 0.22 | 97 | 1010.9 |
| 20260904121534 | 45 | 88 | 0.0 | 0.0 | 0.03 | 0.23 | 0.22 | 97 | 1010.8 |
| 20260904120033 | 45 | 88 | 0.0 | 0.0 | 0.02 | 0.22 | 0.21 | 97 | 1010.6 |
| 20260904114532 | 45 | 88 | 0.0 | 0.0 | 0.03 | 0.22 | 0.21 | 97 | 1010.5 |
| 20260904113030 | 46 | 88 | 0.0 | 0.0 | 0.03 | 0.21 | 0.20 | 97 | 1010.2 |
| 20260904111527 | 46 | 88 | 0.0 | 0.0 | 0.03 | 0.20 | 0.19 | 97 | 1010.1 |
| 20260904110025 | 45 | 88 | 0.0 | 0.0 | 0.04 | 0.20 | 0.19 | 97 | 1009.9 |
| 20260904104523 | 45 | 88 | 0.0 | 2.0 | 0.04 | 0.19 | 0.18 | 97 | 1009.8 |
| 20260904103025 | 45 | 88 | 0.0 | 0.0 | 0.05 | 0.18 | 0.17 | 97 | 1009.7 |
| 20260904101520 | 44 | 88 | 0.0 | 0.0 | 0.06 | 0.17 | 0.16 | 97 | 1009.8 |
| 20260904100020 | 44 | 88 | 0.0 | 2.0 | 0.07 | 0.16 | 0.15 | 97 | 1009.6 |
| 20260904094522 | 44 | 88 | 0.0 | 0.0 | 0.09 | 0.15 | 0.14 | 97 | 1009.6 |
| 20260904093017 | 43 | 88 | 0.0 | 0.0 | 0.11 | 0.13 | 0.12 | 96 | 1009.3 |
| 20260904091530 | 43 | 88 | 0.0 | 0.0 | 0.10 | 0.11 | 0.10 | 96 | 1009.4 |
| 20260904090016 | 43 | 88 | 0.0 | 0.0 | 0.08 | 0.09 | 0.08 | 96 | 1009.4 |
| 20260904084517 | 43 | 88 | 0.0 | 1.0 | 0.05 | 0.06 | 0.05 | 95 | 1009.4 |
| 20260904083025 | 44 | 82 | 0.0 | 0.0 | 0.01 | 0.02 | 0.01 | 95 | 1009.6 |
| 20260904081514 | 44 | 82 | 0.0 | 0.0 | 0.00 | 0.01 | 0.00 | 96 | 1009.6 |
| 20260904080012 | 44 | 82 | 0.0 | 0.0 | 0.00 | 0.01 | 0.00 | 96 | 1009.7 |
| 20260904074510 | 44 | 82 | 0.0 | 0.0 | 0.00 | 0.01 | 0.00 | 95 | 1009.6 |
| 20260904073010 | 44 | 82 | 0.0 | 0.0 | 0.00 | 0.01 | 0.00 | 95 | 1009.5 |
| 20260904071508 | 44 | 82 | 0.0 | 0.0 | 0.00 | 0.01 | 0.00 | 95 | 1009.5 |
| 20260904070006 | 44 | 82 | 0.0 | 0.0 | 0.00 | 0.01 | 0.00 | 95 | 1009.4 |
| 20260904064507 | 44 | 82 | 0.0 | 0.0 | 0.00 | 0.01 | 0.01 | 94 | 1009.6 |
| 20260904063013 | 44 | 82 | 0.0 | 0.0 | 0.00 | 0.01 | 0.01 | 94 | 1009.6 |
| 20260904061508 | 44 | 82 | 0.0 | 0.0 | 0.00 | 0.01 | 0.01 | 93 | 1009.5 |
| 20260904060004 | 44 | 82 | 0.0 | 0.0 | 0.00 | 0.01 | 0.01 | 93 | 1009.4 |
| 20260904054504 | 45 | 82 | 0.0 | 0.0 | 0.00 | 0.01 | 0.01 | 92 | 1009.4 |
| 20260904053002 | 46 | 82 | 0.0 | 0.0 | 0.00 | 0.01 | 0.01 | 93 | 1009.4 |
| 20260904051501 | 46 | 82 | 0.0 | 0.0 | 0.00 | 0.01 | 0.01 | 92 | 1009.3 |
| 20260904050001 | 47 | 82 | 0.0 | 0.0 | 0.00 | 0.01 | 0.01 | 91 | 1009.3 |
| 20260904044622 | 48 | 82 | 0.0 | 0.0 | 0.00 | 0.01 | 0.01 | 90 | 1009.3 |
| 20260904043104 | 49 | 82 | 0.0 | 0.0 | 0.00 | 0.01 | 0.01 | 91 | 1009.1 |
| 20260904041606 | 49 | 82 | 0.0 | 0.0 | 0.00 | 0.01 | 0.01 | 92 | 1009.1 |
| 20260904040057 | 50 | 82 | 0.0 | 0.0 | 0.00 | 0.01 | 0.01 | 91 | 1009.0 |
| 20260904034557 | 50 | 82 | 0.0 | 0.0 | 0.00 | 0.01 | 0.01 | 92 | 1009.0 |
| 20260904033100 | 51 | 82 | 0.0 | 0.0 | 0.00 | 0.01 | 0.01 | 91 | 1008.9 |
| 20260904031604 | 51 | 82 | 0.0 | 0.0 | 0.00 | 0.01 | 0.01 | 90 | 1008.7 |
| 20260904030053 | 52 | 82 | 0.0 | 0.0 | 0.00 | 0.01 | 0.01 | 89 | 1008.6 |
| 20260904024552 | 53 | 82 | 0.0 | 0.0 | 0.00 | 0.02 | 0.01 | 89 | 1008.5 |
| 20260904023053 | 53 | 82 | 0.0 | 0.0 | 0.00 | 0.02 | 0.01 | 89 | 1008.5 |
| 20260904021553 | 54 | 82 | 0.0 | 0.0 | 0.00 | 0.02 | 0.01 | 88 | 1008.6 |
| 20260904020050 | 54 | 82 | 0.0 | 0.0 | 0.00 | 0.02 | 0.01 | 86 | 1008.5 |
| 20260904014549 | 54 | 82 | 0.0 | 1.0 | 0.00 | 0.02 | 0.01 | 85 | 1008.5 |
| 20260904013047 | 54 | 80 | 0.0 | 0.0 | 0.00 | 0.02 | 0.01 | 82 | 1008.3 |
| 20260904011545 | 54 | 80 | 0.0 | 0.0 | 0.00 | 0.02 | 0.01 | 84 | 1007.8 |